Law, Texas
Current Conditions -  °F | °C
As of 6:53 PM on Friday 19 Dec 2014 (Local Time) from KCLL Reporting Station
Haze Haze  
Wind Chill: 51°   Ceiling: 700
Heat Index: 51°   Visibility: 4mi
Dew Point: 50°   Wind: 13mph
Humidity: 96%   Direction: 340°NNW
Pressure: 30.13"   Gusts: NA
Location:  30.6361°N, 96.3666°W
Report Text: KCLL 200053Z 34011KT 4SM BR OVC007 11/10 A3013 RMK AO2 CIG 005V010 SLP202 T01060100
Loading
Personal Weather Stations






























Interactive Weather Map New forecast layout! Learn more

10-Day Weather Forecast

Advertisements
Track Severe Weather on mobile